createdAt,value
2019-04-12T00:01:03.570Z,57.10
2019-04-12T00:03:34.477Z,56.30
2019-04-12T00:06:05.105Z,56.50
2019-04-12T00:08:35.448Z,57.20
2019-04-12T00:11:05.983Z,58.30
2019-04-12T00:13:36.593Z,58.10
2019-04-12T00:16:07.252Z,58.30
2019-04-12T00:18:37.587Z,58.30
2019-04-12T00:21:08.302Z,58.30
2019-04-12T00:23:38.651Z,58.40
2019-04-12T00:26:09.005Z,58.50
2019-04-12T00:28:39.365Z,58.20
2019-04-12T00:31:09.682Z,58.30
2019-04-12T00:33:40.064Z,58.30
2019-04-12T00:36:10.391Z,58.70
2019-04-12T00:38:40.751Z,60.10
2019-04-12T00:41:11.536Z,60.00
2019-04-12T00:43:42.557Z,61.00
2019-04-12T00:46:12.907Z,61.30
2019-04-12T00:48:43.576Z,61.70
2019-04-12T00:51:14.213Z,63.20
2019-04-12T00:53:45.508Z,63.50
2019-04-12T00:56:17.167Z,64.30
2019-04-12T00:58:47.595Z,64.30
2019-04-12T01:01:22.223Z,64.80
2019-04-12T01:03:58.195Z,64.50
2019-04-12T01:06:28.542Z,64.60
2019-04-12T01:08:58.866Z,64.80
2019-04-12T01:11:29.229Z,65.90
2019-04-12T01:13:59.550Z,66.80
2019-04-12T01:16:30.981Z,67.80
2019-04-12T01:19:02.668Z,69.30
2019-04-12T01:21:37.126Z,68.50
2019-04-12T01:24:08.166Z,68.70
2019-04-12T01:26:38.909Z,69.40
2019-04-12T01:29:09.549Z,69.20
2019-04-12T01:31:39.905Z,69.60
2019-04-12T01:34:10.286Z,68.80
2019-04-12T01:36:40.634Z,70.10
2019-04-12T01:39:11.437Z,70.10
2019-04-12T01:41:42.111Z,69.50
2019-04-12T01:44:12.461Z,68.80
2019-04-12T01:46:43.350Z,68.10
2019-04-12T01:49:14.003Z,66.90
2019-04-12T01:51:44.665Z,66.40
2019-04-12T01:54:15.582Z,66.30
2019-04-12T01:56:46.527Z,67.80
2019-04-12T01:59:17.159Z,67.10
2019-04-12T02:01:48.179Z,66.20
2019-04-12T02:04:18.622Z,66.60
2019-04-12T02:06:48.965Z,67.80
2019-04-12T02:09:19.314Z,67.40
2019-04-12T02:11:49.664Z,65.90
2019-04-12T02:14:20.372Z,68.00
2019-04-12T02:16:51.073Z,69.50
2019-04-12T02:19:21.494Z,69.40
2019-04-12T02:21:52.137Z,68.60
2019-04-12T02:24:22.463Z,68.80
2019-04-12T02:26:52.987Z,68.90
2019-04-12T02:29:23.367Z,68.70
2019-04-12T02:32:07.617Z,69.40
2019-04-12T02:34:37.944Z,68.30
2019-04-12T02:37:08.653Z,68.30
2019-04-12T02:39:39.660Z,68.90
2019-04-12T02:42:10.005Z,68.40
2019-04-12T02:44:40.662Z,68.00
2019-04-12T02:47:28.854Z,68.60
2019-04-12T02:50:09.391Z,68.40
2019-04-12T02:52:56.918Z,67.50
2019-04-12T02:55:37.830Z,66.30
2019-04-12T03:00:43.773Z,65.70
2019-04-12T03:03:14.481Z,66.40
2019-04-12T03:05:45.194Z,66.00
2019-04-12T03:08:16.759Z,65.80
2019-04-12T03:10:47.081Z,67.00
2019-04-12T03:13:17.768Z,66.20
2019-04-12T03:15:48.527Z,66.70
2019-04-12T03:18:19.202Z,67.30
2019-04-12T03:20:49.617Z,68.00
2019-04-12T03:23:20.533Z,67.80
2019-04-12T03:25:54.064Z,68.20
2019-04-12T03:28:23.569Z,68.20
2019-04-12T03:30:54.639Z,68.00
2019-04-12T03:33:24.962Z,67.80
2019-04-12T03:35:55.574Z,67.40
2019-04-12T03:38:26.283Z,68.10
2019-04-12T03:40:56.940Z,69.40
2019-04-12T03:43:27.596Z,67.70
2019-04-12T03:45:57.980Z,67.40
2019-04-12T03:48:28.377Z,67.60
2019-04-12T03:50:59.285Z,67.50
2019-04-12T03:53:29.654Z,67.10
2019-04-12T03:56:07.826Z,67.20
2019-04-12T03:58:32.449Z,67.80
2019-04-12T04:01:03.655Z,67.60
2019-04-12T04:03:33.974Z,66.30
2019-04-12T04:06:04.384Z,67.70
2019-04-12T04:08:34.851Z,67.20
2019-04-12T04:11:05.195Z,67.70
2019-04-12T04:13:35.627Z,67.60
2019-04-12T04:16:07.985Z,67.40
2019-04-12T04:18:40.277Z,66.40
2019-04-12T04:21:17.776Z,65.70
2019-04-12T04:24:08.228Z,67.10
2019-04-12T04:26:56.830Z,67.20
2019-04-12T04:29:35.199Z,68.20
2019-04-12T04:32:13.717Z,67.30
2019-04-12T04:34:44.347Z,68.60
2019-04-12T04:37:14.682Z,68.50
2019-04-12T04:39:45.454Z,67.50
2019-04-12T04:42:16.017Z,66.40
2019-04-12T04:44:46.333Z,64.70
2019-04-12T04:47:17.629Z,65.50
2019-04-12T04:49:47.948Z,65.70
2019-04-12T04:52:18.293Z,66.40
2019-04-12T04:54:48.800Z,65.80
2019-04-12T04:57:19.177Z,64.70
2019-04-12T04:59:49.491Z,64.70
2019-04-12T05:02:19.990Z,64.70
2019-04-12T05:04:50.340Z,64.60
2019-04-12T05:07:20.689Z,65.50
2019-04-12T05:09:51.398Z,64.20
2019-04-12T05:12:21.752Z,63.20
2019-04-12T05:14:53.179Z,62.40
2019-04-12T05:17:23.561Z,61.60
2019-04-12T05:19:54.425Z,61.20
2019-04-12T05:22:24.773Z,61.60
2019-04-12T05:24:55.509Z,60.90
2019-04-12T05:27:25.855Z,60.60
2019-04-12T05:29:56.172Z,61.40
2019-04-12T05:32:26.755Z,60.50
2019-04-12T05:34:57.511Z,60.00
2019-04-12T05:37:28.090Z,58.70
2019-04-12T05:39:58.462Z,58.50
2019-04-12T05:42:28.780Z,59.00
2019-04-12T05:44:59.480Z,57.90
2019-04-12T05:47:34.221Z,57.60
2019-04-12T05:50:16.614Z,57.30
2019-04-12T05:52:47.221Z,57.20
2019-04-12T05:55:18.132Z,57.80
2019-04-12T05:57:50.443Z,56.60
2019-04-12T06:00:22.718Z,55.50
2019-04-12T06:02:57.813Z,55.60
2019-04-12T06:05:25.098Z,55.20
2019-04-12T06:07:56.011Z,53.10
2019-04-12T06:10:26.335Z,53.50
2019-04-12T06:12:56.682Z,53.10
2019-04-12T06:15:27.033Z,53.20
2019-04-12T06:17:58.059Z,53.40
2019-04-12T06:20:30.032Z,53.70
2019-04-12T06:23:01.028Z,52.60
2019-04-12T06:25:38.889Z,52.30
2019-04-12T06:28:10.229Z,51.90
2019-04-12T06:30:48.756Z,51.00
2019-04-12T06:33:19.482Z,50.20
2019-04-12T06:35:49.877Z,51.20
2019-04-12T06:38:20.536Z,50.40
2019-04-12T06:40:50.884Z,51.20
2019-04-12T06:43:21.670Z,50.40
2019-04-12T06:45:52.476Z,49.10
2019-04-12T06:48:23.171Z,49.10
2019-04-12T06:50:55.154Z,49.30
2019-04-12T06:53:26.202Z,48.40
2019-04-12T06:56:01.122Z,48.60
2019-04-12T06:58:31.774Z,48.50
2019-04-12T07:01:08.103Z,48.40
2019-04-12T07:03:56.254Z,49.10
2019-04-12T07:06:18.016Z,48.30
2019-04-12T07:08:48.359Z,48.10
2019-04-12T07:11:18.739Z,47.60
2019-04-12T07:13:49.078Z,49.40
2019-04-12T07:16:20.058Z,49.10
2019-04-12T07:18:50.756Z,47.90
2019-04-12T07:21:21.206Z,47.10
2019-04-12T07:23:51.929Z,47.10
2019-04-12T07:26:22.725Z,46.40
2019-04-12T07:28:53.073Z,45.80
2019-04-12T07:31:23.826Z,46.30
2019-04-12T07:33:54.443Z,45.80
2019-04-12T07:36:25.056Z,45.50
2019-04-12T07:38:55.804Z,45.30
2019-04-12T07:41:26.789Z,44.10
2019-04-12T07:43:57.127Z,44.50
2019-04-12T07:46:27.824Z,45.10
2019-04-12T07:48:58.223Z,44.80
2019-04-12T07:51:39.026Z,44.00
2019-04-12T07:54:19.997Z,43.70
2019-04-12T07:56:51.057Z,43.70
2019-04-12T07:59:23.421Z,44.70
2019-04-12T08:02:11.372Z,43.10
2019-04-12T08:04:50.027Z,43.00
2019-04-12T08:07:22.362Z,43.10
2019-04-12T08:09:52.707Z,42.00
2019-04-12T08:12:23.739Z,42.30
2019-04-12T08:14:54.115Z,42.70
2019-04-12T08:17:24.523Z,41.80
2019-04-12T08:19:55.339Z,41.60
2019-04-12T08:22:26.000Z,40.60
2019-04-12T08:24:56.403Z,39.70
2019-04-12T08:27:27.181Z,39.70
2019-04-12T08:29:57.547Z,38.80
2019-04-12T08:32:27.896Z,39.30
2019-04-12T08:34:58.241Z,40.20
2019-04-12T08:37:28.912Z,39.80
2019-04-12T08:39:59.561Z,39.80
2019-04-12T08:42:30.216Z,39.50
2019-04-12T08:45:00.933Z,37.90
2019-04-12T08:47:31.328Z,37.90
2019-04-12T08:50:02.138Z,37.70
2019-04-12T08:52:32.530Z,36.80
2019-04-12T08:55:03.610Z,36.50
2019-04-12T08:57:34.038Z,37.10
2019-04-12T09:00:06.480Z,36.60
2019-04-12T09:02:36.903Z,38.10
2019-04-12T09:05:07.962Z,37.70
2019-04-12T09:07:38.429Z,36.80
2019-04-12T09:10:08.979Z,36.20
2019-04-12T09:12:39.378Z,35.60
2019-04-12T09:15:10.658Z,34.70
2019-04-12T09:17:41.292Z,35.60
2019-04-12T09:20:28.681Z,35.60
2019-04-12T09:23:07.180Z,35.20
2019-04-12T09:25:39.604Z,33.80
2019-04-12T09:28:11.492Z,33.70
2019-04-12T09:30:43.675Z,32.60
2019-04-12T09:33:13.983Z,31.70
2019-04-12T09:35:46.936Z,31.40
2019-04-12T09:38:16.376Z,31.30
2019-04-12T09:40:47.212Z,31.00
2019-04-12T09:43:18.247Z,31.20
2019-04-12T09:45:48.923Z,31.60
2019-04-12T09:48:19.289Z,32.50
2019-04-12T09:50:49.634Z,31.40
2019-04-12T09:53:20.327Z,33.00
2019-04-12T09:55:51.755Z,33.30
2019-04-12T09:58:22.098Z,32.20
2019-04-12T10:00:52.478Z,31.20
2019-04-12T10:03:23.257Z,30.60
2019-04-12T10:05:53.607Z,31.10
2019-04-12T10:08:27.070Z,32.10
2019-04-12T10:10:56.536Z,33.10
2019-04-12T10:13:28.034Z,32.20
2019-04-12T10:15:58.452Z,32.40
2019-04-12T10:18:28.865Z,30.60
2019-04-12T10:20:59.189Z,31.00
2019-04-12T10:23:29.608Z,30.00
2019-04-12T10:26:00.588Z,32.70
2019-04-12T10:28:30.982Z,33.80
2019-04-12T10:31:01.548Z,32.40
2019-04-12T10:33:32.181Z,31.40
2019-04-12T10:36:02.536Z,31.70
2019-04-12T10:38:34.630Z,31.20
2019-04-12T10:41:05.333Z,30.10
2019-04-12T10:43:36.373Z,31.30
2019-04-12T10:46:08.649Z,31.70
2019-04-12T10:48:46.987Z,32.90
2019-04-12T10:51:18.976Z,31.40
2019-04-12T10:53:50.967Z,31.40
2019-04-12T10:56:21.476Z,31.00
2019-04-12T10:59:02.357Z,31.20
2019-04-12T11:01:25.867Z,30.50
2019-04-12T11:03:56.238Z,30.60
2019-04-12T11:06:30.567Z,30.30
2019-04-12T11:08:59.091Z,30.40
2019-04-12T11:11:29.905Z,30.40
2019-04-12T11:14:00.238Z,30.40
2019-04-12T11:16:30.590Z,30.10
2019-04-12T11:19:00.967Z,29.50
2019-04-12T11:21:31.698Z,29.80
2019-04-12T11:24:02.516Z,29.20
2019-04-12T11:26:33.500Z,29.20
2019-04-12T11:29:16.405Z,28.40
2019-04-12T11:31:36.132Z,29.00
2019-04-12T11:34:07.624Z,29.10
2019-04-12T11:36:38.025Z,28.90
2019-04-12T11:39:08.407Z,28.40
2019-04-12T11:41:38.766Z,27.50
2019-04-12T11:44:09.108Z,28.30
2019-04-12T11:46:40.398Z,28.50
2019-04-12T11:49:10.787Z,30.60
2019-04-12T11:51:41.391Z,31.40
2019-04-12T11:54:12.050Z,31.10
2019-04-12T11:56:43.223Z,31.80
2019-04-12T11:59:13.606Z,31.80
2019-04-12T12:01:46.011Z,32.20
2019-04-12T12:04:30.855Z,32.80
2019-04-12T12:07:03.858Z,33.50
2019-04-12T12:09:35.913Z,35.00
2019-04-12T12:12:14.354Z,35.00
2019-04-12T12:14:49.217Z,34.70
2019-04-12T12:17:27.683Z,34.90
2019-04-12T12:19:58.036Z,34.70
2019-04-12T12:22:28.386Z,33.90
2019-04-12T12:24:58.754Z,33.50
2019-04-12T12:27:29.452Z,33.50
2019-04-12T12:29:59.834Z,34.60
2019-04-12T12:32:30.722Z,35.20
2019-04-12T12:35:01.132Z,35.00
2019-04-12T12:37:31.482Z,34.70
2019-04-12T12:40:02.213Z,34.70
2019-04-12T12:42:32.934Z,35.20
2019-04-12T12:45:05.175Z,33.30
2019-04-12T12:47:35.694Z,32.30
2019-04-12T12:50:07.583Z,32.40
2019-04-12T12:52:37.906Z,32.10
2019-04-12T12:55:08.512Z,32.60
2019-04-12T12:57:38.875Z,32.90
2019-04-12T13:00:09.570Z,31.30
2019-04-12T13:02:39.955Z,31.60
2019-04-12T13:05:10.632Z,31.40
2019-04-12T13:07:40.960Z,31.80
2019-04-12T13:10:11.419Z,32.10
2019-04-12T13:12:42.534Z,32.40
2019-04-12T13:15:12.884Z,33.40
2019-04-12T13:17:43.657Z,35.00
2019-04-12T13:20:14.402Z,34.80
2019-04-12T13:22:45.218Z,34.90
2019-04-12T13:25:16.908Z,35.40
2019-04-12T13:27:47.389Z,35.00
2019-04-12T13:30:31.714Z,34.90
2019-04-12T13:33:04.439Z,35.00
2019-04-12T13:35:46.015Z,35.50
2019-04-12T13:38:42.128Z,36.00
2019-04-12T13:41:12.851Z,34.80
2019-04-12T13:43:43.931Z,35.00
2019-04-12T13:46:14.563Z,36.40
2019-04-12T13:48:45.327Z,36.90
2019-04-12T13:51:16.224Z,36.60
2019-04-12T13:53:47.905Z,37.20
2019-04-12T13:56:18.563Z,37.20
2019-04-12T13:58:48.917Z,36.20
2019-04-12T14:01:19.286Z,36.20
2019-04-12T14:03:49.681Z,34.90
2019-04-12T14:06:20.785Z,35.60
2019-04-12T14:08:51.104Z,36.00
2019-04-12T14:11:22.200Z,35.70
2019-04-12T14:13:52.602Z,35.30
2019-04-12T14:16:22.970Z,35.40
2019-04-12T14:18:53.709Z,35.60
2019-04-12T14:21:24.062Z,36.50
2019-04-12T14:23:54.762Z,36.70
2019-04-12T14:26:26.138Z,36.30
2019-04-12T14:28:56.485Z,37.50
2019-04-12T14:31:28.455Z,38.70
2019-04-12T14:34:00.774Z,39.20
2019-04-12T14:36:45.396Z,38.70
2019-04-12T14:39:19.815Z,39.10
2019-04-12T14:41:50.515Z,38.50
2019-04-12T14:44:23.612Z,39.30
2019-04-12T14:46:58.300Z,39.40
2019-04-12T14:49:28.629Z,40.50
2019-04-12T14:51:58.972Z,39.40
2019-04-12T14:54:30.012Z,39.10
2019-04-12T14:57:00.648Z,39.90
2019-04-12T14:59:30.976Z,39.70
2019-04-12T15:02:01.370Z,39.60
2019-04-12T15:04:32.457Z,39.70
2019-04-12T15:07:03.155Z,40.30
2019-04-12T15:09:33.840Z,41.50
2019-04-12T15:12:04.194Z,42.50
2019-04-12T15:14:34.525Z,44.30
2019-04-12T15:17:05.328Z,43.90
2019-04-12T15:19:35.954Z,43.20
2019-04-12T15:22:06.285Z,43.70
2019-04-12T15:24:36.708Z,44.20
2019-04-12T15:27:07.029Z,42.90
2019-04-12T15:29:37.364Z,42.30
2019-04-12T15:32:07.771Z,43.70
2019-04-12T15:34:38.434Z,42.80
2019-04-12T15:37:08.827Z,42.50
2019-04-12T15:39:39.153Z,41.80
2019-04-12T15:42:09.480Z,41.20
2019-04-12T15:44:39.819Z,41.00
2019-04-12T15:47:10.898Z,40.90
2019-04-12T15:49:41.217Z,39.70
2019-04-12T15:52:14.000Z,40.00
2019-04-12T15:54:44.626Z,39.60
2019-04-12T15:57:15.324Z,38.60
2019-04-12T15:59:45.978Z,39.00
2019-04-12T16:02:17.253Z,40.30
2019-04-12T16:04:47.615Z,40.20
2019-04-12T16:07:23.347Z,39.80
2019-04-12T16:09:58.562Z,39.80
2019-04-12T16:12:48.810Z,39.90
2019-04-12T16:16:02.513Z,40.20
2019-04-12T16:18:32.902Z,40.30
2019-04-12T16:21:03.256Z,40.20
2019-04-12T16:23:33.973Z,41.20
2019-04-12T16:26:04.438Z,41.20
2019-04-12T16:28:49.231Z,41.00
2019-04-12T16:31:24.352Z,41.20
2019-04-12T16:33:56.449Z,40.90
2019-04-12T16:36:28.689Z,41.20
2019-04-12T16:38:59.080Z,41.30
2019-04-12T16:41:29.472Z,41.50
2019-04-12T16:43:59.804Z,41.80
2019-04-12T16:46:34.398Z,40.50
2019-04-12T16:49:02.964Z,40.60
2019-04-12T16:51:52.801Z,40.40
2019-04-12T16:54:23.511Z,40.40
2019-04-12T16:56:54.130Z,40.20
2019-04-12T16:59:25.239Z,40.00
2019-04-12T17:02:06.969Z,40.10
2019-04-12T17:04:28.488Z,39.90
2019-04-12T17:06:59.307Z,40.60
2019-04-12T17:09:30.008Z,40.50
2019-04-12T17:12:00.685Z,40.60
2019-04-12T17:14:31.127Z,40.40
2019-04-12T17:17:01.868Z,40.50
2019-04-12T17:19:32.213Z,40.60
2019-04-12T17:22:02.673Z,40.70
2019-04-12T17:24:33.034Z,40.30
2019-04-12T17:27:03.401Z,39.80
2019-04-12T17:29:34.092Z,39.90
2019-04-12T17:32:04.435Z,39.70
2019-04-12T17:34:35.476Z,40.10
2019-04-12T17:37:05.855Z,40.00
2019-04-12T17:39:36.487Z,40.70
2019-04-12T17:42:06.815Z,41.20
2019-04-12T17:44:37.508Z,41.50
2019-04-12T17:47:07.954Z,42.00
2019-04-12T17:49:56.075Z,42.70
2019-04-12T17:52:28.413Z,42.90
2019-04-12T17:55:00.382Z,42.70
2019-04-12T17:57:30.816Z,43.50
2019-04-12T18:00:01.540Z,42.70
2019-04-12T18:02:43.457Z,43.30
2019-04-12T18:05:15.004Z,42.80
2019-04-12T18:07:45.419Z,43.30
2019-04-12T18:10:15.715Z,43.30
2019-04-12T18:12:46.443Z,43.30
2019-04-12T18:15:18.980Z,43.20
2019-04-12T18:17:50.240Z,43.30
2019-04-12T18:20:20.966Z,43.30
2019-04-12T18:22:52.017Z,43.30
2019-04-12T18:25:22.505Z,43.40
2019-04-12T18:27:53.200Z,43.30
2019-04-12T18:30:24.152Z,43.30
2019-04-12T18:32:55.428Z,43.30
2019-04-12T18:35:26.413Z,43.40
2019-04-12T18:37:57.081Z,43.40
2019-04-12T18:40:27.757Z,43.90
2019-04-12T18:42:58.120Z,44.10
2019-04-12T18:45:28.463Z,43.60
2019-04-12T18:47:59.590Z,43.70
2019-04-12T18:50:29.941Z,43.70
2019-04-12T18:53:00.291Z,43.70
2019-04-12T18:55:30.650Z,43.80
2019-04-12T18:58:01.082Z,43.20
2019-04-12T19:00:32.074Z,43.30
2019-04-12T19:03:02.972Z,43.30
2019-04-12T19:05:33.695Z,43.20
2019-04-12T19:08:04.041Z,43.20
2019-04-12T19:10:34.792Z,43.20
2019-04-12T19:13:05.833Z,43.70
2019-04-12T19:15:36.163Z,43.60
2019-04-12T19:18:07.560Z,43.30
2019-04-12T19:20:37.908Z,43.70
2019-04-12T19:23:08.511Z,43.50
2019-04-12T19:25:38.869Z,43.30
2019-04-12T19:28:09.223Z,43.60
2019-04-12T19:30:41.216Z,43.70
2019-04-12T19:33:25.596Z,43.40
2019-04-12T19:36:01.531Z,43.50
2019-04-12T19:38:50.123Z,43.10
2019-04-12T19:41:21.750Z,43.40
2019-04-12T19:43:52.087Z,43.70
2019-04-12T19:46:22.844Z,44.00
2019-04-12T19:48:53.517Z,43.80
2019-04-12T19:51:24.237Z,44.60
2019-04-12T19:53:54.832Z,44.70
2019-04-12T19:56:25.210Z,43.80
2019-04-12T19:58:55.937Z,43.90
2019-04-12T20:01:26.332Z,44.30
2019-04-12T20:03:56.667Z,44.30
2019-04-12T20:06:27.270Z,44.40
2019-04-12T20:08:57.969Z,44.40
2019-04-12T20:11:28.316Z,44.70
2019-04-12T20:13:58.665Z,44.70
2019-04-12T20:16:29.193Z,44.40
2019-04-12T20:18:59.552Z,44.40
2019-04-12T20:21:30.281Z,44.40
2019-04-12T20:24:01.065Z,44.60
2019-04-12T20:26:32.075Z,44.60
2019-04-12T20:29:02.714Z,44.70
2019-04-12T20:31:34.980Z,44.70
2019-04-12T20:34:05.653Z,44.60
2019-04-12T20:36:36.375Z,44.70
2019-04-12T20:39:08.540Z,45.10
2019-04-12T20:41:38.870Z,45.10
2019-04-12T20:44:09.218Z,45.20
2019-04-12T20:46:39.873Z,45.00
2019-04-12T20:49:10.278Z,45.20
2019-04-12T20:51:40.628Z,45.20
2019-04-12T20:54:11.470Z,45.10
2019-04-12T20:56:42.066Z,45.40
2019-04-12T20:59:12.857Z,45.40
2019-04-12T21:01:43.497Z,45.70
2019-04-12T21:04:14.186Z,45.70
2019-04-12T21:06:45.126Z,45.60
2019-04-12T21:09:15.529Z,45.90
2019-04-12T21:11:45.861Z,45.80
2019-04-12T21:14:16.466Z,46.10
2019-04-12T21:16:47.298Z,45.90
2019-04-12T21:19:17.959Z,45.60
2019-04-12T21:21:48.727Z,45.90
2019-04-12T21:24:19.516Z,45.80
2019-04-12T21:26:49.891Z,45.80
2019-04-12T21:29:20.593Z,46.10
2019-04-12T21:31:51.326Z,46.20
2019-04-12T21:34:21.691Z,46.30
2019-04-12T21:36:52.028Z,46.70
2019-04-12T21:39:22.762Z,46.30
2019-04-12T21:41:53.460Z,46.80
2019-04-12T21:44:24.082Z,46.20
2019-04-12T21:46:54.842Z,46.20
2019-04-12T21:49:25.580Z,46.60
2019-04-12T21:51:55.892Z,46.30
2019-04-12T21:54:26.573Z,46.60
2019-04-12T21:56:57.472Z,46.40
2019-04-12T21:59:28.209Z,46.70
2019-04-12T22:01:58.639Z,46.70
2019-04-12T22:04:29.500Z,46.60
2019-04-12T22:06:59.813Z,47.20
2019-04-12T22:09:30.925Z,46.80
2019-04-12T22:12:01.277Z,47.20
2019-04-12T22:14:31.597Z,46.70
2019-04-12T22:17:01.994Z,47.20
2019-04-12T22:19:32.722Z,47.20
2019-04-12T22:22:03.076Z,47.20
2019-04-12T22:24:33.657Z,47.10
2019-04-12T22:27:04.095Z,47.20
2019-04-12T22:29:34.785Z,47.20
2019-04-12T22:32:07.158Z,47.10
2019-04-12T22:34:37.792Z,47.80
2019-04-12T22:37:08.435Z,48.00
2019-04-12T22:39:38.859Z,47.90
2019-04-12T22:42:09.473Z,47.80
2019-04-12T22:44:39.812Z,48.10
2019-04-12T22:47:10.201Z,49.10
2019-04-12T22:49:40.896Z,48.30
2019-04-12T22:52:11.587Z,48.60
2019-04-12T22:54:42.497Z,48.90
2019-04-12T22:57:13.092Z,49.30
2019-04-12T22:59:43.425Z,49.10
2019-04-12T23:02:14.168Z,49.10
2019-04-12T23:04:44.594Z,49.20
2019-04-12T23:07:15.505Z,49.50
2019-04-12T23:09:45.900Z,49.40
2019-04-12T23:12:16.583Z,49.80
2019-04-12T23:14:47.215Z,50.10
2019-04-12T23:17:18.250Z,49.70
2019-04-12T23:19:49.262Z,49.80
2019-04-12T23:22:19.923Z,49.70
2019-04-12T23:24:50.528Z,50.00
2019-04-12T23:27:20.852Z,50.50
2019-04-12T23:29:51.204Z,50.30
2019-04-12T23:32:23.212Z,50.60
2019-04-12T23:35:00.961Z,50.60
2019-04-12T23:37:41.808Z,51.20
2019-04-12T23:40:13.508Z,52.00
2019-04-12T23:42:44.138Z,51.40
2019-04-12T23:45:18.061Z,51.40
2019-04-12T23:47:48.685Z,51.30
2019-04-12T23:50:19.311Z,51.40
2019-04-12T23:52:49.680Z,51.50
2019-04-12T23:55:20.030Z,51.50
2019-04-12T23:57:51.012Z,51.40
